sensor_id;sensor_type;location;lat;lon;timestamp;P1;durP1;ratioP1;P2;durP2;ratioP2
34459;SDS011;20704;51.260;22.558;2023-09-30T00:01:40;22.77;;;14.15;;
34459;SDS011;20704;51.260;22.558;2023-09-30T00:03:42;19.70;;;12.07;;
34459;SDS011;20704;51.260;22.558;2023-09-30T00:05:45;20.13;;;13.27;;
34459;SDS011;20704;51.260;22.558;2023-09-30T00:07:47;23.30;;;12.98;;
34459;SDS011;20704;51.260;22.558;2023-09-30T00:09:49;22.80;;;13.35;;
34459;SDS011;20704;51.260;22.558;2023-09-30T00:11:53;18.52;;;11.60;;
34459;SDS011;20704;51.260;22.558;2023-09-30T00:13:57;17.70;;;11.35;;
34459;SDS011;20704;51.260;22.558;2023-09-30T00:16:00;16.92;;;11.23;;
34459;SDS011;20704;51.260;22.558;2023-09-30T00:18:02;18.65;;;11.43;;
34459;SDS011;20704;51.260;22.558;2023-09-30T00:20:05;20.35;;;11.48;;
34459;SDS011;20704;51.260;22.558;2023-09-30T00:22:08;17.67;;;10.57;;
34459;SDS011;20704;51.260;22.558;2023-09-30T00:24:11;20.05;;;11.52;;
34459;SDS011;20704;51.260;22.558;2023-09-30T00:26:13;18.65;;;11.00;;
34459;SDS011;20704;51.260;22.558;2023-09-30T00:28:15;18.95;;;11.57;;
34459;SDS011;20704;51.260;22.558;2023-09-30T00:30:18;16.75;;;11.45;;
34459;SDS011;20704;51.260;22.558;2023-09-30T00:32:20;19.85;;;11.80;;
34459;SDS011;20704;51.260;22.558;2023-09-30T00:34:22;20.33;;;11.50;;
34459;SDS011;20704;51.260;22.558;2023-09-30T00:36:24;23.45;;;11.52;;
34459;SDS011;20704;51.260;22.558;2023-09-30T00:38:27;15.57;;;10.70;;
34459;SDS011;20704;51.260;22.558;2023-09-30T00:40:29;18.85;;;10.57;;
34459;SDS011;20704;51.260;22.558;2023-09-30T00:42:32;27.00;;;11.40;;
34459;SDS011;20704;51.260;22.558;2023-09-30T00:44:34;31.15;;;12.50;;
34459;SDS011;20704;51.260;22.558;2023-09-30T00:46:37;20.95;;;11.35;;
34459;SDS011;20704;51.260;22.558;2023-09-30T00:48:41;22.73;;;11.30;;
34459;SDS011;20704;51.260;22.558;2023-09-30T00:50:45;18.80;;;11.48;;
34459;SDS011;20704;51.260;22.558;2023-09-30T00:52:48;19.05;;;11.35;;
34459;SDS011;20704;51.260;22.558;2023-09-30T00:54:50;20.30;;;10.60;;
34459;SDS011;20704;51.260;22.558;2023-09-30T00:56:54;18.73;;;11.02;;
34459;SDS011;20704;51.260;22.558;2023-09-30T00:58:58;17.85;;;10.68;;
34459;SDS011;20704;51.260;22.558;2023-09-30T01:01:01;21.35;;;10.98;;
34459;SDS011;20704;51.260;22.558;2023-09-30T01:03:03;19.15;;;11.20;;
34459;SDS011;20704;51.260;22.558;2023-09-30T01:05:07;19.58;;;11.18;;
34459;SDS011;20704;51.260;22.558;2023-09-30T01:07:10;17.63;;;10.95;;
34459;SDS011;20704;51.260;22.558;2023-09-30T01:09:12;17.27;;;10.25;;
34459;SDS011;20704;51.260;22.558;2023-09-30T01:11:16;18.85;;;10.50;;
34459;SDS011;20704;51.260;22.558;2023-09-30T01:13:19;20.10;;;11.57;;
34459;SDS011;20704;51.260;22.558;2023-09-30T01:15:21;21.52;;;11.00;;
34459;SDS011;20704;51.260;22.558;2023-09-30T01:17:23;17.42;;;10.95;;
34459;SDS011;20704;51.260;22.558;2023-09-30T01:19:26;27.92;;;10.93;;
34459;SDS011;20704;51.260;22.558;2023-09-30T01:21:29;16.40;;;10.40;;
34459;SDS011;20704;51.260;22.558;2023-09-30T01:23:36;20.17;;;10.63;;
34459;SDS011;20704;51.260;22.558;2023-09-30T01:25:38;16.33;;;9.70;;
34459;SDS011;20704;51.260;22.558;2023-09-30T01:27:41;21.73;;;10.32;;
34459;SDS011;20704;51.260;22.558;2023-09-30T01:29:44;14.60;;;9.35;;
34459;SDS011;20704;51.260;22.558;2023-09-30T01:31:47;22.10;;;10.55;;
34459;SDS011;20704;51.260;22.558;2023-09-30T01:33:51;14.18;;;10.18;;
34459;SDS011;20704;51.260;22.558;2023-09-30T01:35:57;15.73;;;9.98;;
34459;SDS011;20704;51.260;22.558;2023-09-30T01:37:59;12.85;;;9.02;;
34459;SDS011;20704;51.260;22.558;2023-09-30T01:40:02;13.32;;;9.02;;
34459;SDS011;20704;51.260;22.558;2023-09-30T01:42:05;15.55;;;9.05;;
34459;SDS011;20704;51.260;22.558;2023-09-30T01:44:08;16.77;;;9.75;;
34459;SDS011;20704;51.260;22.558;2023-09-30T01:46:10;15.07;;;8.43;;
34459;SDS011;20704;51.260;22.558;2023-09-30T01:48:13;14.82;;;9.50;;
34459;SDS011;20704;51.260;22.558;2023-09-30T01:50:15;19.25;;;9.55;;
34459;SDS011;20704;51.260;22.558;2023-09-30T01:52:19;14.20;;;8.77;;
34459;SDS011;20704;51.260;22.558;2023-09-30T01:54:21;15.30;;;9.85;;
34459;SDS011;20704;51.260;22.558;2023-09-30T01:56:23;17.38;;;9.98;;
34459;SDS011;20704;51.260;22.558;2023-09-30T01:58:26;17.15;;;9.73;;
34459;SDS011;20704;51.260;22.558;2023-09-30T02:00:28;19.17;;;9.25;;
34459;SDS011;20704;51.260;22.558;2023-09-30T02:02:31;20.67;;;10.73;;
34459;SDS011;20704;51.260;22.558;2023-09-30T02:04:34;14.10;;;9.60;;
34459;SDS011;20704;51.260;22.558;2023-09-30T02:06:36;18.75;;;9.98;;
34459;SDS011;20704;51.260;22.558;2023-09-30T02:08:38;14.95;;;9.20;;
34459;SDS011;20704;51.260;22.558;2023-09-30T02:10:40;16.55;;;10.45;;
34459;SDS011;20704;51.260;22.558;2023-09-30T02:12:43;17.42;;;10.52;;
34459;SDS011;20704;51.260;22.558;2023-09-30T02:14:45;17.88;;;10.20;;
34459;SDS011;20704;51.260;22.558;2023-09-30T02:16:48;17.50;;;10.10;;
34459;SDS011;20704;51.260;22.558;2023-09-30T02:18:50;16.88;;;9.70;;
34459;SDS011;20704;51.260;22.558;2023-09-30T02:20:53;17.48;;;10.45;;
34459;SDS011;20704;51.260;22.558;2023-09-30T02:22:56;15.68;;;9.88;;
34459;SDS011;20704;51.260;22.558;2023-09-30T02:25:00;15.88;;;9.70;;
34459;SDS011;20704;51.260;22.558;2023-09-30T02:27:03;15.68;;;9.63;;
34459;SDS011;20704;51.260;22.558;2023-09-30T02:29:05;16.45;;;9.15;;
34459;SDS011;20704;51.260;22.558;2023-09-30T02:31:09;15.88;;;9.27;;
34459;SDS011;20704;51.260;22.558;2023-09-30T02:33:11;15.05;;;9.45;;
34459;SDS011;20704;51.260;22.558;2023-09-30T02:35:14;19.95;;;9.35;;
34459;SDS011;20704;51.260;22.558;2023-09-30T02:37:17;13.77;;;9.30;;
34459;SDS011;20704;51.260;22.558;2023-09-30T02:39:19;16.20;;;9.75;;
34459;SDS011;20704;51.260;22.558;2023-09-30T02:41:22;15.55;;;9.95;;
34459;SDS011;20704;51.260;22.558;2023-09-30T02:43:25;20.63;;;11.23;;
34459;SDS011;20704;51.260;22.558;2023-09-30T02:45:27;18.88;;;10.30;;
34459;SDS011;20704;51.260;22.558;2023-09-30T02:47:29;18.95;;;11.23;;
34459;SDS011;20704;51.260;22.558;2023-09-30T02:49:33;12.73;;;9.30;;
34459;SDS011;20704;51.260;22.558;2023-09-30T02:51:35;19.13;;;10.02;;
34459;SDS011;20704;51.260;22.558;2023-09-30T02:53:38;19.83;;;10.80;;
34459;SDS011;20704;51.260;22.558;2023-09-30T02:55:40;16.25;;;10.15;;
34459;SDS011;20704;51.260;22.558;2023-09-30T02:57:43;16.95;;;9.65;;
34459;SDS011;20704;51.260;22.558;2023-09-30T02:59:48;14.95;;;9.77;;
34459;SDS011;20704;51.260;22.558;2023-09-30T03:01:50;14.77;;;9.60;;
34459;SDS011;20704;51.260;22.558;2023-09-30T03:03:53;17.42;;;10.90;;
34459;SDS011;20704;51.260;22.558;2023-09-30T03:05:56;15.10;;;10.43;;
34459;SDS011;20704;51.260;22.558;2023-09-30T03:07:59;16.08;;;10.55;;
34459;SDS011;20704;51.260;22.558;2023-09-30T03:10:03;17.75;;;9.15;;
34459;SDS011;20704;51.260;22.558;2023-09-30T03:12:10;19.33;;;10.43;;
34459;SDS011;20704;51.260;22.558;2023-09-30T03:14:14;13.23;;;9.07;;
34459;SDS011;20704;51.260;22.558;2023-09-30T03:16:16;14.00;;;10.25;;
34459;SDS011;20704;51.260;22.558;2023-09-30T03:18:18;13.80;;;9.23;;
34459;SDS011;20704;51.260;22.558;2023-09-30T03:20:28;15.52;;;9.63;;
34459;SDS011;20704;51.260;22.558;2023-09-30T03:22:30;14.65;;;10.25;;
34459;SDS011;20704;51.260;22.558;2023-09-30T03:24:32;15.75;;;10.00;;
34459;SDS011;20704;51.260;22.558;2023-09-30T03:26:35;18.42;;;10.68;;
34459;SDS011;20704;51.260;22.558;2023-09-30T03:28:37;17.80;;;10.43;;
34459;SDS011;20704;51.260;22.558;2023-09-30T03:30:40;18.08;;;9.30;;
34459;SDS011;20704;51.260;22.558;2023-09-30T03:32:43;15.07;;;10.48;;
34459;SDS011;20704;51.260;22.558;2023-09-30T03:34:45;15.23;;;10.15;;
34459;SDS011;20704;51.260;22.558;2023-09-30T03:36:48;18.70;;;9.80;;
34459;SDS011;20704;51.260;22.558;2023-09-30T03:38:52;18.08;;;10.65;;
34459;SDS011;20704;51.260;22.558;2023-09-30T03:40:57;17.52;;;10.35;;
34459;SDS011;20704;51.260;22.558;2023-09-30T03:43:00;19.80;;;11.07;;
34459;SDS011;20704;51.260;22.558;2023-09-30T03:45:03;13.93;;;9.82;;
34459;SDS011;20704;51.260;22.558;2023-09-30T03:47:06;18.17;;;9.88;;
34459;SDS011;20704;51.260;22.558;2023-09-30T03:49:09;14.75;;;9.90;;
34459;SDS011;20704;51.260;22.558;2023-09-30T03:51:12;16.23;;;9.70;;
34459;SDS011;20704;51.260;22.558;2023-09-30T03:53:18;18.52;;;11.13;;
34459;SDS011;20704;51.260;22.558;2023-09-30T03:55:21;17.98;;;9.20;;
34459;SDS011;20704;51.260;22.558;2023-09-30T03:57:24;16.23;;;9.68;;
34459;SDS011;20704;51.260;22.558;2023-09-30T03:59:30;14.40;;;10.13;;
34459;SDS011;20704;51.260;22.558;2023-09-30T04:01:32;19.10;;;10.52;;
34459;SDS011;20704;51.260;22.558;2023-09-30T04:03:34;14.90;;;9.68;;
34459;SDS011;20704;51.260;22.558;2023-09-30T04:05:39;22.85;;;10.77;;
34459;SDS011;20704;51.260;22.558;2023-09-30T04:07:42;19.77;;;11.90;;
34459;SDS011;20704;51.260;22.558;2023-09-30T04:09:44;18.98;;;10.07;;
34459;SDS011;20704;51.260;22.558;2023-09-30T04:11:47;15.13;;;9.98;;
34459;SDS011;20704;51.260;22.558;2023-09-30T04:13:49;13.95;;;10.63;;
34459;SDS011;20704;51.260;22.558;2023-09-30T04:15:52;18.80;;;10.65;;
34459;SDS011;20704;51.260;22.558;2023-09-30T04:17:57;15.00;;;10.38;;
34459;SDS011;20704;51.260;22.558;2023-09-30T04:19:59;24.73;;;10.10;;
34459;SDS011;20704;51.260;22.558;2023-09-30T04:22:02;18.17;;;9.90;;
34459;SDS011;20704;51.260;22.558;2023-09-30T04:24:06;19.65;;;9.98;;
34459;SDS011;20704;51.260;22.558;2023-09-30T04:26:08;16.25;;;10.85;;
34459;SDS011;20704;51.260;22.558;2023-09-30T04:28:12;16.35;;;9.95;;
34459;SDS011;20704;51.260;22.558;2023-09-30T04:30:15;14.07;;;9.98;;
34459;SDS011;20704;51.260;22.558;2023-09-30T04:32:21;17.27;;;10.82;;
34459;SDS011;20704;51.260;22.558;2023-09-30T04:34:23;16.13;;;10.55;;
34459;SDS011;20704;51.260;22.558;2023-09-30T04:36:26;15.63;;;10.93;;
34459;SDS011;20704;51.260;22.558;2023-09-30T04:38:28;15.65;;;10.07;;
34459;SDS011;20704;51.260;22.558;2023-09-30T04:40:32;15.35;;;11.02;;
34459;SDS011;20704;51.260;22.558;2023-09-30T04:42:35;20.02;;;12.02;;
34459;SDS011;20704;51.260;22.558;2023-09-30T04:44:38;19.48;;;9.85;;
34459;SDS011;20704;51.260;22.558;2023-09-30T04:46:43;14.68;;;10.18;;
34459;SDS011;20704;51.260;22.558;2023-09-30T04:48:48;17.90;;;11.30;;
34459;SDS011;20704;51.260;22.558;2023-09-30T04:50:53;17.77;;;10.85;;
34459;SDS011;20704;51.260;22.558;2023-09-30T04:52:57;19.80;;;11.27;;
34459;SDS011;20704;51.260;22.558;2023-09-30T04:54:59;16.05;;;9.85;;
34459;SDS011;20704;51.260;22.558;2023-09-30T04:57:06;18.35;;;11.23;;
34459;SDS011;20704;51.260;22.558;2023-09-30T04:59:08;17.17;;;10.45;;
34459;SDS011;20704;51.260;22.558;2023-09-30T05:01:11;17.48;;;10.32;;
34459;SDS011;20704;51.260;22.558;2023-09-30T05:03:13;17.92;;;11.25;;
34459;SDS011;20704;51.260;22.558;2023-09-30T05:05:16;14.80;;;8.90;;
34459;SDS011;20704;51.260;22.558;2023-09-30T05:07:19;18.73;;;10.18;;
34459;SDS011;20704;51.260;22.558;2023-09-30T05:09:23;16.90;;;10.27;;
34459;SDS011;20704;51.260;22.558;2023-09-30T05:11:27;16.75;;;10.32;;
34459;SDS011;20704;51.260;22.558;2023-09-30T05:13:29;22.55;;;10.10;;
34459;SDS011;20704;51.260;22.558;2023-09-30T05:15:32;19.63;;;10.93;;
34459;SDS011;20704;51.260;22.558;2023-09-30T05:17:37;19.17;;;10.25;;
34459;SDS011;20704;51.260;22.558;2023-09-30T05:19:39;20.00;;;9.55;;
34459;SDS011;20704;51.260;22.558;2023-09-30T05:21:42;14.65;;;8.93;;
34459;SDS011;20704;51.260;22.558;2023-09-30T05:23:46;14.48;;;9.65;;
34459;SDS011;20704;51.260;22.558;2023-09-30T05:25:49;15.57;;;9.40;;
34459;SDS011;20704;51.260;22.558;2023-09-30T05:27:51;20.55;;;10.52;;
34459;SDS011;20704;51.260;22.558;2023-09-30T05:29:53;16.23;;;10.27;;
34459;SDS011;20704;51.260;22.558;2023-09-30T05:31:56;21.10;;;11.23;;
34459;SDS011;20704;51.260;22.558;2023-09-30T05:33:59;15.60;;;9.73;;
34459;SDS011;20704;51.260;22.558;2023-09-30T05:36:02;18.60;;;10.10;;
34459;SDS011;20704;51.260;22.558;2023-09-30T05:38:06;19.75;;;10.45;;
34459;SDS011;20704;51.260;22.558;2023-09-30T05:40:09;15.80;;;10.25;;
34459;SDS011;20704;51.260;22.558;2023-09-30T05:42:25;14.93;;;10.70;;
34459;SDS011;20704;51.260;22.558;2023-09-30T05:44:27;18.98;;;10.63;;
34459;SDS011;20704;51.260;22.558;2023-09-30T05:46:30;17.27;;;10.25;;
34459;SDS011;20704;51.260;22.558;2023-09-30T05:48:33;18.95;;;10.52;;
34459;SDS011;20704;51.260;22.558;2023-09-30T05:50:35;15.82;;;10.05;;
34459;SDS011;20704;51.260;22.558;2023-09-30T05:52:38;21.83;;;9.93;;
34459;SDS011;20704;51.260;22.558;2023-09-30T05:54:40;18.20;;;10.00;;
34459;SDS011;20704;51.260;22.558;2023-09-30T05:56:43;16.38;;;10.15;;
34459;SDS011;20704;51.260;22.558;2023-09-30T05:58:48;16.80;;;10.25;;
34459;SDS011;20704;51.260;22.558;2023-09-30T06:00:51;22.80;;;10.93;;
34459;SDS011;20704;51.260;22.558;2023-09-30T06:02:59;16.45;;;10.07;;
34459;SDS011;20704;51.260;22.558;2023-09-30T06:05:02;15.10;;;8.93;;
34459;SDS011;20704;51.260;22.558;2023-09-30T06:07:05;16.13;;;11.35;;
34459;SDS011;20704;51.260;22.558;2023-09-30T06:09:07;23.23;;;11.55;;
34459;SDS011;20704;51.260;22.558;2023-09-30T06:11:20;19.77;;;10.48;;
34459;SDS011;20704;51.260;22.558;2023-09-30T06:13:32;14.70;;;10.65;;
34459;SDS011;20704;51.260;22.558;2023-09-30T06:15:41;18.98;;;10.38;;
34459;SDS011;20704;51.260;22.558;2023-09-30T06:17:45;20.63;;;10.13;;
34459;SDS011;20704;51.260;22.558;2023-09-30T06:19:48;18.70;;;9.95;;
34459;SDS011;20704;51.260;22.558;2023-09-30T06:21:52;18.13;;;10.93;;
34459;SDS011;20704;51.260;22.558;2023-09-30T06:23:55;18.15;;;9.80;;
34459;SDS011;20704;51.260;22.558;2023-09-30T06:25:59;16.05;;;9.55;;
34459;SDS011;20704;51.260;22.558;2023-09-30T06:28:04;17.48;;;10.15;;
34459;SDS011;20704;51.260;22.558;2023-09-30T06:30:06;14.43;;;9.63;;
34459;SDS011;20704;51.260;22.558;2023-09-30T06:32:10;16.10;;;9.93;;
34459;SDS011;20704;51.260;22.558;2023-09-30T06:34:13;17.83;;;10.15;;
34459;SDS011;20704;51.260;22.558;2023-09-30T06:36:15;18.27;;;10.35;;
34459;SDS011;20704;51.260;22.558;2023-09-30T06:38:18;19.27;;;9.85;;
34459;SDS011;20704;51.260;22.558;2023-09-30T06:40:21;15.40;;;9.18;;
34459;SDS011;20704;51.260;22.558;2023-09-30T06:42:26;16.20;;;9.75;;
34459;SDS011;20704;51.260;22.558;2023-09-30T06:44:29;13.93;;;9.50;;
34459;SDS011;20704;51.260;22.558;2023-09-30T06:46:32;14.52;;;9.25;;
34459;SDS011;20704;51.260;22.558;2023-09-30T06:48:36;14.30;;;9.20;;
34459;SDS011;20704;51.260;22.558;2023-09-30T06:52:46;13.52;;;9.27;;
34459;SDS011;20704;51.260;22.558;2023-09-30T06:54:51;11.18;;;8.13;;
34459;SDS011;20704;51.260;22.558;2023-09-30T06:56:54;13.23;;;8.50;;
34459;SDS011;20704;51.260;22.558;2023-09-30T06:59:03;11.80;;;8.67;;
34459;SDS011;20704;51.260;22.558;2023-09-30T07:01:05;15.93;;;8.45;;
34459;SDS011;20704;51.260;22.558;2023-09-30T07:03:08;12.27;;;8.38;;
34459;SDS011;20704;51.260;22.558;2023-09-30T07:05:12;15.95;;;9.90;;
34459;SDS011;20704;51.260;22.558;2023-09-30T07:07:15;12.35;;;9.32;;
34459;SDS011;20704;51.260;22.558;2023-09-30T07:09:18;15.75;;;9.50;;
34459;SDS011;20704;51.260;22.558;2023-09-30T07:11:30;16.35;;;9.43;;
34459;SDS011;20704;51.260;22.558;2023-09-30T07:13:36;15.50;;;8.95;;
34459;SDS011;20704;51.260;22.558;2023-09-30T07:15:38;15.05;;;9.05;;
34459;SDS011;20704;51.260;22.558;2023-09-30T07:17:44;23.02;;;9.70;;
34459;SDS011;20704;51.260;22.558;2023-09-30T07:19:48;16.80;;;9.80;;
34459;SDS011;20704;51.260;22.558;2023-09-30T07:21:50;17.85;;;8.43;;
34459;SDS011;20704;51.260;22.558;2023-09-30T07:24:05;13.05;;;9.43;;
34459;SDS011;20704;51.260;22.558;2023-09-30T07:26:08;12.23;;;8.38;;
34459;SDS011;20704;51.260;22.558;2023-09-30T07:28:10;14.35;;;8.48;;
34459;SDS011;20704;51.260;22.558;2023-09-30T07:30:14;14.95;;;8.48;;
34459;SDS011;20704;51.260;22.558;2023-09-30T07:32:19;13.70;;;8.27;;
34459;SDS011;20704;51.260;22.558;2023-09-30T07:34:25;17.45;;;7.60;;
34459;SDS011;20704;51.260;22.558;2023-09-30T07:36:27;11.55;;;8.07;;
34459;SDS011;20704;51.260;22.558;2023-09-30T07:38:30;15.73;;;7.55;;
34459;SDS011;20704;51.260;22.558;2023-09-30T07:40:32;14.80;;;8.18;;
34459;SDS011;20704;51.260;22.558;2023-09-30T07:42:34;13.25;;;7.47;;
34459;SDS011;20704;51.260;22.558;2023-09-30T07:44:37;13.18;;;8.35;;
34459;SDS011;20704;51.260;22.558;2023-09-30T07:46:46;13.32;;;8.40;;
34459;SDS011;20704;51.260;22.558;2023-09-30T07:48:49;12.32;;;8.60;;
34459;SDS011;20704;51.260;22.558;2023-09-30T07:50:52;13.15;;;8.18;;
34459;SDS011;20704;51.260;22.558;2023-09-30T07:52:57;15.93;;;8.38;;
34459;SDS011;20704;51.260;22.558;2023-09-30T07:55:03;14.40;;;8.50;;
34459;SDS011;20704;51.260;22.558;2023-09-30T07:57:06;14.73;;;8.43;;
34459;SDS011;20704;51.260;22.558;2023-09-30T07:59:09;25.67;;;8.88;;
34459;SDS011;20704;51.260;22.558;2023-09-30T08:01:11;16.73;;;9.57;;
34459;SDS011;20704;51.260;22.558;2023-09-30T08:03:14;18.52;;;9.30;;
34459;SDS011;20704;51.260;22.558;2023-09-30T08:05:18;17.45;;;8.30;;
34459;SDS011;20704;51.260;22.558;2023-09-30T08:07:20;15.50;;;8.93;;
34459;SDS011;20704;51.260;22.558;2023-09-30T08:09:25;14.13;;;8.50;;
34459;SDS011;20704;51.260;22.558;2023-09-30T08:11:28;17.95;;;8.68;;
34459;SDS011;20704;51.260;22.558;2023-09-30T08:13:33;12.80;;;8.02;;
34459;SDS011;20704;51.260;22.558;2023-09-30T08:15:36;13.07;;;7.60;;
34459;SDS011;20704;51.260;22.558;2023-09-30T08:17:38;13.55;;;8.15;;
34459;SDS011;20704;51.260;22.558;2023-09-30T08:19:41;10.55;;;7.72;;
34459;SDS011;20704;51.260;22.558;2023-09-30T08:21:44;15.73;;;8.30;;
34459;SDS011;20704;51.260;22.558;2023-09-30T08:23:49;14.70;;;8.05;;
34459;SDS011;20704;51.260;22.558;2023-09-30T08:25:51;12.43;;;7.47;;
34459;SDS011;20704;51.260;22.558;2023-09-30T08:27:56;12.57;;;7.82;;
34459;SDS011;20704;51.260;22.558;2023-09-30T08:29:58;12.48;;;8.43;;
34459;SDS011;20704;51.260;22.558;2023-09-30T08:32:01;13.68;;;8.15;;
34459;SDS011;20704;51.260;22.558;2023-09-30T08:34:05;11.73;;;6.95;;
34459;SDS011;20704;51.260;22.558;2023-09-30T08:36:07;11.68;;;7.95;;
34459;SDS011;20704;51.260;22.558;2023-09-30T08:38:14;10.25;;;6.85;;
34459;SDS011;20704;51.260;22.558;2023-09-30T08:40:20;13.88;;;7.60;;
34459;SDS011;20704;51.260;22.558;2023-09-30T08:42:23;16.08;;;8.20;;
34459;SDS011;20704;51.260;22.558;2023-09-30T08:44:28;15.15;;;6.97;;
34459;SDS011;20704;51.260;22.558;2023-09-30T08:46:33;10.63;;;7.03;;
34459;SDS011;20704;51.260;22.558;2023-09-30T08:48:36;13.15;;;6.60;;
34459;SDS011;20704;51.260;22.558;2023-09-30T08:50:39;11.98;;;7.43;;
34459;SDS011;20704;51.260;22.558;2023-09-30T08:52:44;10.50;;;7.05;;
34459;SDS011;20704;51.260;22.558;2023-09-30T08:54:46;13.43;;;7.80;;
34459;SDS011;20704;51.260;22.558;2023-09-30T08:56:49;13.15;;;6.82;;
34459;SDS011;20704;51.260;22.558;2023-09-30T08:58:52;12.48;;;6.70;;
34459;SDS011;20704;51.260;22.558;2023-09-30T09:01:00;11.43;;;7.57;;
34459;SDS011;20704;51.260;22.558;2023-09-30T09:03:13;15.40;;;7.50;;
34459;SDS011;20704;51.260;22.558;2023-09-30T09:05:17;13.73;;;7.05;;
34459;SDS011;20704;51.260;22.558;2023-09-30T09:07:20;13.98;;;7.72;;
34459;SDS011;20704;51.260;22.558;2023-09-30T09:09:23;13.65;;;6.55;;
34459;SDS011;20704;51.260;22.558;2023-09-30T09:11:26;10.57;;;6.70;;
34459;SDS011;20704;51.260;22.558;2023-09-30T09:13:28;11.63;;;6.82;;
34459;SDS011;20704;51.260;22.558;2023-09-30T09:16:04;11.02;;;7.15;;
34459;SDS011;20704;51.260;22.558;2023-09-30T09:18:09;14.38;;;7.68;;
34459;SDS011;20704;51.260;22.558;2023-09-30T09:20:18;15.50;;;7.05;;
34459;SDS011;20704;51.260;22.558;2023-09-30T09:22:22;13.63;;;6.45;;
34459;SDS011;20704;51.260;22.558;2023-09-30T09:24:34;11.88;;;7.40;;
34459;SDS011;20704;51.260;22.558;2023-09-30T09:26:38;10.15;;;6.60;;
34459;SDS011;20704;51.260;22.558;2023-09-30T09:28:41;13.02;;;7.22;;
34459;SDS011;20704;51.260;22.558;2023-09-30T09:30:45;15.52;;;8.07;;
34459;SDS011;20704;51.260;22.558;2023-09-30T09:33:04;13.02;;;7.68;;
34459;SDS011;20704;51.260;22.558;2023-09-30T09:35:07;13.75;;;7.72;;
34459;SDS011;20704;51.260;22.558;2023-09-30T09:37:16;13.98;;;8.85;;
34459;SDS011;20704;51.260;22.558;2023-09-30T09:39:30;11.70;;;7.53;;
34459;SDS011;20704;51.260;22.558;2023-09-30T09:41:33;13.67;;;7.53;;
34459;SDS011;20704;51.260;22.558;2023-09-30T09:43:54;9.35;;;6.72;;
34459;SDS011;20704;51.260;22.558;2023-09-30T09:45:59;12.57;;;8.27;;
34459;SDS011;20704;51.260;22.558;2023-09-30T09:48:05;11.82;;;7.35;;
34459;SDS011;20704;51.260;22.558;2023-09-30T09:50:09;15.75;;;7.22;;
34459;SDS011;20704;51.260;22.558;2023-09-30T09:52:12;12.55;;;7.22;;
34459;SDS011;20704;51.260;22.558;2023-09-30T09:54:17;13.43;;;7.00;;
34459;SDS011;20704;51.260;22.558;2023-09-30T09:56:21;11.25;;;6.75;;
34459;SDS011;20704;51.260;22.558;2023-09-30T09:58:24;11.25;;;7.32;;
34459;SDS011;20704;51.260;22.558;2023-09-30T10:00:28;10.35;;;6.55;;
34459;SDS011;20704;51.260;22.558;2023-09-30T10:02:33;12.70;;;6.60;;
34459;SDS011;20704;51.260;22.558;2023-09-30T10:04:37;12.82;;;6.20;;
34459;SDS011;20704;51.260;22.558;2023-09-30T10:06:39;9.80;;;6.03;;
34459;SDS011;20704;51.260;22.558;2023-09-30T10:08:43;12.10;;;6.95;;
34459;SDS011;20704;51.260;22.558;2023-09-30T10:10:49;10.70;;;6.28;;
34459;SDS011;20704;51.260;22.558;2023-09-30T10:12:52;12.23;;;6.70;;
34459;SDS011;20704;51.260;22.558;2023-09-30T10:14:54;9.48;;;6.55;;
34459;SDS011;20704;51.260;22.558;2023-09-30T10:16:56;12.30;;;6.65;;
34459;SDS011;20704;51.260;22.558;2023-09-30T10:21:18;9.65;;;6.13;;
34459;SDS011;20704;51.260;22.558;2023-09-30T10:23:24;11.38;;;6.72;;
34459;SDS011;20704;51.260;22.558;2023-09-30T10:25:35;13.15;;;6.97;;
34459;SDS011;20704;51.260;22.558;2023-09-30T10:27:40;9.25;;;5.72;;
34459;SDS011;20704;51.260;22.558;2023-09-30T10:29:47;9.00;;;5.75;;
34459;SDS011;20704;51.260;22.558;2023-09-30T10:31:50;11.23;;;6.97;;
34459;SDS011;20704;51.260;22.558;2023-09-30T10:36:04;9.30;;;5.75;;
34459;SDS011;20704;51.260;22.558;2023-09-30T10:40:27;8.45;;;5.13;;
34459;SDS011;20704;51.260;22.558;2023-09-30T10:44:51;9.38;;;4.90;;
34459;SDS011;20704;51.260;22.558;2023-09-30T10:46:55;9.88;;;6.20;;
34459;SDS011;20704;51.260;22.558;2023-09-30T10:49:14;8.30;;;5.07;;
34459;SDS011;20704;51.260;22.558;2023-09-30T10:51:26;7.50;;;5.13;;
34459;SDS011;20704;51.260;22.558;2023-09-30T10:53:28;9.88;;;5.70;;
34459;SDS011;20704;51.260;22.558;2023-09-30T10:55:31;7.07;;;4.70;;
34459;SDS011;20704;51.260;22.558;2023-09-30T10:57:33;12.00;;;5.80;;
34459;SDS011;20704;51.260;22.558;2023-09-30T10:59:36;8.48;;;5.03;;
34459;SDS011;20704;51.260;22.558;2023-09-30T11:01:38;6.65;;;4.90;;
34459;SDS011;20704;51.260;22.558;2023-09-30T11:03:41;6.70;;;4.60;;
34459;SDS011;20704;51.260;22.558;2023-09-30T11:05:47;7.32;;;4.60;;
34459;SDS011;20704;51.260;22.558;2023-09-30T11:08:13;10.50;;;4.80;;
34459;SDS011;20704;51.260;22.558;2023-09-30T11:10:18;8.50;;;4.53;;
34459;SDS011;20704;51.260;22.558;2023-09-30T11:12:22;5.93;;;4.30;;
34459;SDS011;20704;51.260;22.558;2023-09-30T11:14:26;7.38;;;4.72;;
34459;SDS011;20704;51.260;22.558;2023-09-30T11:16:42;7.15;;;4.70;;
34459;SDS011;20704;51.260;22.558;2023-09-30T11:18:45;6.32;;;4.25;;
34459;SDS011;20704;51.260;22.558;2023-09-30T11:20:48;7.45;;;4.20;;
34459;SDS011;20704;51.260;22.558;2023-09-30T11:22:51;6.32;;;4.28;;
34459;SDS011;20704;51.260;22.558;2023-09-30T11:24:54;10.50;;;4.32;;
34459;SDS011;20704;51.260;22.558;2023-09-30T11:26:57;7.50;;;4.43;;
34459;SDS011;20704;51.260;22.558;2023-09-30T11:31:08;8.15;;;5.20;;
34459;SDS011;20704;51.260;22.558;2023-09-30T11:33:13;6.65;;;4.28;;
34459;SDS011;20704;51.260;22.558;2023-09-30T11:35:21;6.72;;;4.45;;
34459;SDS011;20704;51.260;22.558;2023-09-30T11:37:32;11.23;;;4.70;;
34459;SDS011;20704;51.260;22.558;2023-09-30T11:41:42;8.15;;;4.72;;
34459;SDS011;20704;51.260;22.558;2023-09-30T11:46:05;8.13;;;5.90;;
34459;SDS011;20704;51.260;22.558;2023-09-30T11:48:17;11.32;;;6.63;;
34459;SDS011;20704;51.260;22.558;2023-09-30T11:50:21;11.43;;;6.10;;
34459;SDS011;20704;51.260;22.558;2023-09-30T11:52:26;11.35;;;7.10;;
34459;SDS011;20704;51.260;22.558;2023-09-30T11:56:36;10.02;;;6.55;;
34459;SDS011;20704;51.260;22.558;2023-09-30T11:58:38;9.02;;;5.78;;
34459;SDS011;20704;51.260;22.558;2023-09-30T12:00:41;9.15;;;6.35;;
34459;SDS011;20704;51.260;22.558;2023-09-30T12:02:44;12.07;;;6.75;;
34459;SDS011;20704;51.260;22.558;2023-09-30T12:04:46;9.82;;;6.47;;
34459;SDS011;20704;51.260;22.558;2023-09-30T12:06:51;9.98;;;6.43;;
34459;SDS011;20704;51.260;22.558;2023-09-30T12:08:54;10.75;;;6.65;;
34459;SDS011;20704;51.260;22.558;2023-09-30T12:10:58;12.13;;;7.28;;
34459;SDS011;20704;51.260;22.558;2023-09-30T12:13:07;12.25;;;7.80;;
34459;SDS011;20704;51.260;22.558;2023-09-30T12:15:13;11.23;;;7.50;;
34459;SDS011;20704;51.260;22.558;2023-09-30T12:17:16;12.25;;;6.88;;
34459;SDS011;20704;51.260;22.558;2023-09-30T12:19:18;9.30;;;6.82;;
34459;SDS011;20704;51.260;22.558;2023-09-30T12:21:21;12.98;;;7.53;;
34459;SDS011;20704;51.260;22.558;2023-09-30T12:23:24;12.40;;;7.53;;